createdAt,value
2022-08-09T00:00:05.833Z,101337.77
2022-08-09T00:02:49.301Z,101333.11
2022-08-09T00:06:18.497Z,101335.08
2022-08-09T00:08:31.565Z,101341.50
2022-08-09T00:10:59.424Z,101340.61
2022-08-09T00:13:28.201Z,101343.52
2022-08-09T00:16:02.649Z,101344.13
2022-08-09T00:18:35.694Z,101344.04
2022-08-09T00:21:08.647Z,101347.29
2022-08-09T00:23:57.894Z,101346.08
2022-08-09T00:26:32.262Z,101343.32
2022-08-09T00:29:03.843Z,101340.90
2022-08-09T00:31:57.081Z,101341.43
2022-08-09T00:34:26.605Z,101338.49
2022-08-09T00:36:53.523Z,101337.64
2022-08-09T00:40:12.293Z,101341.83
2022-08-09T00:44:16.717Z,101344.30
2022-08-09T00:44:55.822Z,101343.02
2022-08-09T00:47:24.795Z,101343.99
2022-08-09T00:49:54.788Z,101349.27
2022-08-09T00:52:30.551Z,101350.57
2022-08-09T00:55:01.264Z,101353.89
2022-08-09T00:57:34.555Z,101357.85
2022-08-09T01:00:21.725Z,101356.21
2022-08-09T01:03:01.963Z,101357.13
2022-08-09T01:05:51.936Z,101354.55
2022-08-09T01:08:48.906Z,101353.73
2022-08-09T01:11:56.047Z,101360.29
2022-08-09T01:14:41.674Z,101354.02
2022-08-09T01:17:19.484Z,101349.75
2022-08-09T01:20:02.742Z,101356.77
2022-08-09T01:22:52.100Z,101356.20
2022-08-09T01:25:42.223Z,101353.45
2022-08-09T01:28:17.147Z,101353.65
2022-08-09T01:30:51.905Z,101356.20
2022-08-09T01:33:24.416Z,101355.73
2022-08-09T01:36:13.703Z,101351.77
2022-08-09T01:38:46.585Z,101354.81
2022-08-09T01:41:14.589Z,101351.23
2022-08-09T01:43:50.549Z,101354.78
2022-08-09T01:46:27.137Z,101354.06
2022-08-09T01:48:59.793Z,101354.30
2022-08-09T01:51:32.156Z,101356.65
2022-08-09T01:54:02.744Z,101359.94
2022-08-09T01:56:36.410Z,101361.16
2022-08-09T01:59:10.391Z,101363.64
2022-08-09T02:01:59.278Z,101364.02
2022-08-09T02:04:28.621Z,101363.25
2022-08-09T02:07:17.884Z,101366.66
2022-08-09T02:10:13.781Z,101364.69
2022-08-09T02:12:44.714Z,101365.05
2022-08-09T02:15:16.797Z,101367.86
2022-08-09T02:18:01.445Z,101362.44
2022-08-09T02:20:45.448Z,101366.68
2022-08-09T02:23:42.748Z,101364.76
2022-08-09T02:26:27.287Z,101366.34
2022-08-09T02:28:59.987Z,101368.91
2022-08-09T02:31:41.138Z,101372.32
2022-08-09T02:34:25.738Z,101367.20
2022-08-09T02:37:06.862Z,101369.23
2022-08-09T02:39:45.270Z,101370.14
2022-08-09T02:42:24.870Z,101368.16
2022-08-09T02:45:07.848Z,101371.36
2022-08-09T02:47:57.420Z,101369.84
2022-08-09T02:50:29.514Z,101374.05
2022-08-09T02:53:25.715Z,101373.16
2022-08-09T02:55:57.923Z,101376.77
2022-08-09T02:58:36.805Z,101378.24
2022-08-09T03:01:11.066Z,101378.08
2022-08-09T03:04:17.131Z,101375.59
2022-08-09T03:06:33.110Z,101380.04
2022-08-09T03:09:01.803Z,101378.42
2022-08-09T03:11:29.778Z,101383.48
2022-08-09T03:14:18.381Z,101378.75
2022-08-09T03:16:48.210Z,101383.56
2022-08-09T03:19:52.418Z,101382.34
2022-08-09T03:22:12.086Z,101380.58
2022-08-09T03:24:52.722Z,101383.98
2022-08-09T03:27:45.186Z,101381.93
2022-08-09T03:30:14.234Z,101383.38
2022-08-09T03:32:57.593Z,101381.72
2022-08-09T03:35:44.306Z,101380.17
2022-08-09T03:38:16.097Z,101380.31
2022-08-09T03:40:56.015Z,101378.70
2022-08-09T03:43:22.855Z,101378.46
2022-08-09T03:46:13.687Z,101384.13
2022-08-09T03:48:43.042Z,101381.60
2022-08-09T03:51:56.040Z,101383.41
2022-08-09T03:54:10.897Z,101381.23
2022-08-09T03:56:41.208Z,101387.80
2022-08-09T03:59:21.085Z,101382.99
2022-08-09T04:01:59.272Z,101385.09
2022-08-09T04:04:36.167Z,101392.23
2022-08-09T04:07:06.499Z,101392.09
2022-08-09T04:09:44.445Z,101393.50
2022-08-09T04:12:44.663Z,101397.73
2022-08-09T04:15:17.258Z,101397.21
2022-08-09T04:18:00.462Z,101397.52
2022-08-09T04:20:28.887Z,101396.98
2022-08-09T04:22:56.236Z,101398.88
2022-08-09T04:25:23.444Z,101398.70
2022-08-09T04:27:50.384Z,101397.66
2022-08-09T04:30:20.903Z,101403.09
2022-08-09T04:32:51.256Z,101398.86
2022-08-09T04:35:21.798Z,101397.44
2022-08-09T04:37:49.890Z,101397.09
2022-08-09T04:40:28.934Z,101395.33
2022-08-09T04:43:04.030Z,101395.86
2022-08-09T04:45:35.956Z,101398.55
2022-08-09T04:48:19.710Z,101403.08
2022-08-09T04:50:46.590Z,101405.98
2022-08-09T04:53:17.285Z,101408.31
2022-08-09T04:55:58.260Z,101411.13
2022-08-09T04:58:29.850Z,101409.42
2022-08-09T05:01:00.040Z,101410.39
2022-08-09T05:03:40.034Z,101412.82
2022-08-09T05:06:11.314Z,101413.27
2022-08-09T05:08:38.893Z,101415.11
2022-08-09T05:11:14.643Z,101416.91
2022-08-09T05:13:43.228Z,101416.05
2022-08-09T05:16:10.329Z,101417.97
2022-08-09T05:18:57.376Z,101413.80
2022-08-09T05:21:29.796Z,101420.35
2022-08-09T05:24:01.498Z,101423.58
2022-08-09T05:26:37.166Z,101427.08
2022-08-09T05:29:21.483Z,101429.64
2022-08-09T05:31:57.521Z,101427.11
2022-08-09T05:34:31.694Z,101427.48
2022-08-09T05:37:05.970Z,101429.47
2022-08-09T05:39:43.153Z,101428.08
2022-08-09T05:42:21.009Z,101428.64
2022-08-09T05:44:54.134Z,101429.71
2022-08-09T05:47:23.323Z,101430.85
2022-08-09T05:50:32.393Z,101430.02
2022-08-09T05:52:44.238Z,101433.64
2022-08-09T05:55:20.668Z,101434.28
2022-08-09T05:57:57.659Z,101430.42
2022-08-09T06:00:28.760Z,101432.79
2022-08-09T06:03:01.512Z,101435.17
2022-08-09T06:05:50.408Z,101436.21
2022-08-09T06:08:19.900Z,101437.05
2022-08-09T06:10:57.094Z,101438.31
2022-08-09T06:13:28.276Z,101440.61
2022-08-09T06:16:05.340Z,101441.63
2022-08-09T06:18:33.769Z,101443.73
2022-08-09T06:21:02.055Z,101444.23
2022-08-09T06:23:55.209Z,101446.15
2022-08-09T06:26:22.765Z,101443.44
2022-08-09T06:28:59.266Z,101438.34
2022-08-09T06:31:30.708Z,101442.51
2022-08-09T06:33:58.790Z,101443.47
2022-08-09T06:36:27.210Z,101444.13
2022-08-09T06:38:57.933Z,101449.05
2022-08-09T06:42:07.688Z,101449.28
2022-08-09T06:44:18.387Z,101451.34
2022-08-09T06:46:45.829Z,101450.29
2022-08-09T06:49:16.217Z,101450.27
2022-08-09T06:51:49.757Z,101449.80
2022-08-09T06:54:18.161Z,101449.44
2022-08-09T06:56:47.352Z,101449.08
2022-08-09T07:00:54.267Z,101448.27
2022-08-09T07:02:04.407Z,101450.52
2022-08-09T07:04:32.596Z,101451.64
2022-08-09T07:07:00.185Z,101454.29
2022-08-09T07:09:54.954Z,101452.73
2022-08-09T07:12:17.996Z,101452.57
2022-08-09T07:14:51.053Z,101454.19
2022-08-09T07:17:20.181Z,101454.87
2022-08-09T07:19:50.847Z,101457.00
2022-08-09T07:22:34.946Z,101457.27
2022-08-09T07:25:09.682Z,101457.48
2022-08-09T07:27:43.113Z,101458.52
2022-08-09T07:30:21.734Z,101461.96
2022-08-09T07:32:52.449Z,101465.59
2022-08-09T07:35:19.648Z,101468.55
2022-08-09T07:37:49.127Z,101471.20
2022-08-09T07:40:20.485Z,101470.05
2022-08-09T07:42:59.971Z,101472.73
2022-08-09T07:45:40.257Z,101474.30
2022-08-09T07:48:29.590Z,101473.23
2022-08-09T07:51:09.639Z,101468.07
2022-08-09T07:54:05.671Z,101466.26
2022-08-09T07:56:36.951Z,101466.04
2022-08-09T07:59:12.490Z,101466.23
2022-08-09T08:01:43.213Z,101471.81
2022-08-09T08:04:20.287Z,101471.63
2022-08-09T08:07:00.142Z,101478.20
2022-08-09T08:09:42.955Z,101475.20
2022-08-09T08:12:27.954Z,101476.96
2022-08-09T08:14:56.167Z,101477.83
2022-08-09T08:17:54.197Z,101477.10
2022-08-09T08:20:13.271Z,101476.92
2022-08-09T08:22:41.150Z,101476.18
2022-08-09T08:25:13.516Z,101480.10
2022-08-09T08:27:43.096Z,101478.64
2022-08-09T08:30:13.852Z,101480.54
2022-08-09T08:32:53.514Z,101479.27
2022-08-09T08:35:22.270Z,101479.93
2022-08-09T08:38:02.110Z,101477.70
2022-08-09T08:40:36.895Z,101480.95
2022-08-09T08:43:08.917Z,101479.13
2022-08-09T08:45:59.616Z,101480.68
2022-08-09T08:48:38.172Z,101480.77
2022-08-09T08:51:18.472Z,101481.50
2022-08-09T08:54:03.289Z,101479.58
2022-08-09T08:56:38.214Z,101478.25
2022-08-09T08:59:19.939Z,101479.47
2022-08-09T09:01:53.181Z,101477.60
2022-08-09T09:04:31.952Z,101478.39
2022-08-09T09:07:10.373Z,101475.45
2022-08-09T09:09:59.653Z,101475.70
2022-08-09T09:12:34.341Z,101478.05
2022-08-09T09:15:03.771Z,101476.33
2022-08-09T09:17:48.652Z,101474.02
2022-08-09T09:20:21.195Z,101473.77
2022-08-09T09:23:01.996Z,101473.35
2022-08-09T09:26:03.500Z,101475.41
2022-08-09T09:28:21.407Z,101475.62
2022-08-09T09:31:17.502Z,101469.83
2022-08-09T09:34:21.272Z,101466.27
2022-08-09T09:36:54.259Z,101465.95
2022-08-09T09:39:50.169Z,101470.73
2022-08-09T09:42:27.926Z,101469.83
2022-08-09T09:45:05.985Z,101468.52
2022-08-09T09:47:47.662Z,101468.43
2022-08-09T09:50:23.424Z,101468.33
2022-08-09T09:52:56.067Z,101468.48
2022-08-09T09:55:27.913Z,101468.91
2022-08-09T09:58:17.106Z,101468.15
2022-08-09T10:00:55.841Z,101466.30
2022-08-09T10:03:56.260Z,101469.52
2022-08-09T10:06:25.676Z,101468.27
2022-08-09T10:09:21.862Z,101461.83
2022-08-09T10:12:14.355Z,101463.97
2022-08-09T10:14:47.816Z,101460.92
2022-08-09T10:17:50.550Z,101457.41
2022-08-09T10:20:26.961Z,101459.45
2022-08-09T10:23:23.769Z,101464.35
2022-08-09T10:26:06.554Z,101461.23
2022-08-09T10:28:38.587Z,101459.64
2022-08-09T10:34:11.450Z,101463.43
2022-08-09T10:36:43.701Z,101458.23
2022-08-09T10:39:15.768Z,101459.26
2022-08-09T10:41:46.256Z,101460.63
2022-08-09T10:44:23.152Z,101459.69
2022-08-09T10:48:20.215Z,101458.70
2022-08-09T10:50:30.780Z,101455.70
2022-08-09T10:53:19.931Z,101456.16
2022-08-09T10:55:58.340Z,101455.59
2022-08-09T10:58:35.069Z,101451.47
2022-08-09T11:03:06.654Z,101449.24
2022-08-09T11:04:30.141Z,101447.13
2022-08-09T11:06:59.602Z,101444.22
2022-08-09T11:09:41.419Z,101444.55
2022-08-09T11:12:18.950Z,101442.20
2022-08-09T11:14:55.793Z,101445.23
2022-08-09T11:17:27.155Z,101439.62
2022-08-09T11:20:11.776Z,101437.55
2022-08-09T11:22:41.661Z,101437.65
2022-08-09T11:25:13.112Z,101435.11
2022-08-09T11:28:05.537Z,101428.84
2022-08-09T11:30:37.592Z,101434.14
2022-08-09T11:33:24.702Z,101431.48
2022-08-09T11:36:00.648Z,101428.48
2022-08-09T11:38:33.157Z,101420.21
2022-08-09T11:41:13.125Z,101422.14
2022-08-09T11:43:52.909Z,101424.61
2022-08-09T11:46:33.299Z,101421.94
2022-08-09T11:49:05.275Z,101418.64
2022-08-09T11:52:56.354Z,101417.91
2022-08-09T11:55:34.999Z,101418.20
2022-08-09T11:58:19.881Z,101414.73
2022-08-09T12:01:37.462Z,101419.09
2022-08-09T12:04:01.844Z,101414.81
2022-08-09T12:06:32.113Z,101413.29
2022-08-09T12:09:01.775Z,101409.86
2022-08-09T12:11:30.211Z,101408.85
2022-08-09T12:14:28.761Z,101407.92
2022-08-09T12:16:59.079Z,101404.63
2022-08-09T12:19:32.223Z,101399.88
2022-08-09T12:22:06.331Z,101401.56
2022-08-09T12:24:33.134Z,101396.19
2022-08-09T12:29:14.327Z,101396.28
2022-08-09T12:30:00.039Z,101395.05
2022-08-09T12:32:32.047Z,101394.52
2022-08-09T12:35:04.609Z,101388.63
2022-08-09T12:37:49.981Z,101387.02
2022-08-09T12:40:19.081Z,101387.66
2022-08-09T12:42:50.499Z,101386.18
2022-08-09T12:45:32.725Z,101387.05
2022-08-09T12:48:11.051Z,101383.10
2022-08-09T12:50:53.814Z,101384.06
2022-08-09T12:53:38.601Z,101382.60
2022-08-09T12:56:37.027Z,101385.70
2022-08-09T12:59:14.022Z,101382.55
2022-08-09T13:01:49.847Z,101384.52
2022-08-09T13:04:37.039Z,101380.17
2022-08-09T13:07:14.731Z,101381.63
2022-08-09T13:09:43.278Z,101380.29
2022-08-09T13:12:20.277Z,101381.27
2022-08-09T13:14:53.783Z,101379.14
2022-08-09T13:17:44.489Z,101379.95
2022-08-09T13:20:16.308Z,101379.88
2022-08-09T13:23:05.801Z,101380.33
2022-08-09T13:25:42.441Z,101382.41
2022-08-09T13:28:18.842Z,101387.60
2022-08-09T13:32:14.018Z,101390.19
2022-08-09T13:33:55.086Z,101392.16
2022-08-09T13:36:37.871Z,101394.46
2022-08-09T13:41:55.144Z,101388.46
2022-08-09T13:42:00.913Z,101389.92
2022-08-09T13:44:29.411Z,101386.59
2022-08-09T13:47:26.575Z,101383.05
2022-08-09T13:49:57.532Z,101383.34
2022-08-09T13:52:28.684Z,101380.42
2022-08-09T13:55:00.935Z,101381.10
2022-08-09T13:57:40.048Z,101381.41
2022-08-09T14:00:15.472Z,101376.27
2022-08-09T14:03:03.732Z,101374.55
2022-08-09T14:05:59.767Z,101369.45
2022-08-09T14:08:28.091Z,101365.29
2022-08-09T14:10:55.906Z,101363.88
2022-08-09T14:14:16.305Z,101362.40
2022-08-09T14:16:15.580Z,101361.86
2022-08-09T14:18:49.811Z,101361.75
2022-08-09T14:21:22.636Z,101358.14
2022-08-09T14:23:56.539Z,101354.30
2022-08-09T14:26:30.483Z,101354.30
2022-08-09T14:29:07.814Z,101352.59
2022-08-09T14:32:19.604Z,101349.55
2022-08-09T14:34:56.777Z,101349.59
2022-08-09T14:37:28.344Z,101346.59
2022-08-09T14:40:28.211Z,101349.39
2022-08-09T14:43:10.581Z,101346.86
2022-08-09T14:46:55.436Z,101342.16
2022-08-09T14:48:32.431Z,101343.88
2022-08-09T14:50:59.757Z,101350.34
2022-08-09T14:53:26.534Z,101349.63
2022-08-09T14:55:53.566Z,101348.23
2022-08-09T14:58:21.536Z,101344.89
2022-08-09T15:00:51.142Z,101343.31
2022-08-09T15:03:20.619Z,101340.67
2022-08-09T15:05:51.422Z,101343.48
2022-08-09T15:08:24.192Z,101343.05
2022-08-09T15:11:00.494Z,101343.41
2022-08-09T15:13:47.861Z,101342.15
2022-08-09T15:16:15.931Z,101339.60
2022-08-09T15:18:43.054Z,101338.09
2022-08-09T15:21:57.382Z,101339.08
2022-08-09T15:24:09.147Z,101335.34
2022-08-09T15:26:45.142Z,101336.85
2022-08-09T15:30:48.536Z,101336.73
2022-08-09T15:31:59.825Z,101339.73
2022-08-09T15:34:34.469Z,101337.73
2022-08-09T15:37:23.631Z,101339.52
2022-08-09T15:39:53.841Z,101335.73
2022-08-09T15:42:21.915Z,101340.80
2022-08-09T15:44:49.963Z,101337.93
2022-08-09T15:47:22.842Z,101338.02
2022-08-09T15:50:04.358Z,101342.70
2022-08-09T15:52:34.534Z,101342.13
2022-08-09T15:55:04.618Z,101346.45
2022-08-09T15:57:34.480Z,101343.00
2022-08-09T16:00:14.522Z,101350.25
2022-08-09T16:02:53.533Z,101349.62
2022-08-09T16:05:23.879Z,101348.90
2022-08-09T16:07:51.275Z,101350.70
2022-08-09T16:10:38.573Z,101352.30
2022-08-09T16:13:21.111Z,101353.71
2022-08-09T16:16:10.698Z,101351.83
2022-08-09T16:18:45.173Z,101358.48
2022-08-09T16:21:17.533Z,101363.05
2022-08-09T16:23:55.688Z,101361.92
2022-08-09T16:26:34.778Z,101360.09
2022-08-09T16:29:11.736Z,101357.04
2022-08-09T16:32:19.749Z,101354.80
2022-08-09T16:34:56.152Z,101355.49
2022-08-09T16:37:20.442Z,101355.23
2022-08-09T16:40:10.077Z,101360.27
2022-08-09T16:42:37.849Z,101356.84
2022-08-09T16:45:07.820Z,101359.30
2022-08-09T16:48:39.464Z,101362.69
2022-08-09T16:50:29.302Z,101359.71
2022-08-09T16:52:58.011Z,101358.84
2022-08-09T16:55:24.947Z,101359.27
2022-08-09T16:58:08.841Z,101361.09
2022-08-09T17:00:42.875Z,101362.52
2022-08-09T17:03:13.184Z,101366.05
2022-08-09T17:06:06.739Z,101366.00
2022-08-09T17:08:44.475Z,101369.53
2022-08-09T17:11:40.812Z,101372.41
2022-08-09T17:14:25.467Z,101378.80
2022-08-09T17:17:02.990Z,101380.65
2022-08-09T17:20:05.980Z,101377.94
2022-08-09T17:22:23.948Z,101379.87
2022-08-09T17:25:03.479Z,101376.97
2022-08-09T17:27:38.216Z,101376.48
2022-08-09T17:30:14.167Z,101377.17
2022-08-09T17:32:44.218Z,101377.40
2022-08-09T17:35:14.951Z,101377.58
2022-08-09T17:38:11.634Z,101382.42
2022-08-09T17:40:34.657Z,101382.98
2022-08-09T17:43:32.173Z,101384.96
2022-08-09T17:46:03.904Z,101391.59
2022-08-09T17:48:39.668Z,101392.43
2022-08-09T17:51:18.266Z,101392.13
2022-08-09T17:53:51.863Z,101394.44
2022-08-09T17:56:27.403Z,101394.06
2022-08-09T17:59:03.142Z,101394.59
2022-08-09T18:01:57.806Z,101395.45
2022-08-09T18:04:24.594Z,101396.55
2022-08-09T18:06:54.836Z,101395.76
2022-08-09T18:09:23.649Z,101394.30
2022-08-09T18:12:05.708Z,101397.50
2022-08-09T18:14:49.910Z,101400.94
2022-08-09T18:18:01.174Z,101403.48
2022-08-09T18:21:01.830Z,101403.91
2022-08-09T18:22:55.540Z,101406.94
2022-08-09T18:25:53.423Z,101406.27
2022-08-09T18:28:21.488Z,101409.70
2022-08-09T18:30:57.750Z,101412.45
2022-08-09T18:33:24.940Z,101412.47
2022-08-09T18:35:59.061Z,101412.51
2022-08-09T18:38:28.245Z,101413.39
2022-08-09T18:40:55.794Z,101412.77
2022-08-09T18:43:24.787Z,101414.10
2022-08-09T18:46:50.613Z,101412.75
2022-08-09T18:48:42.338Z,101407.51
2022-08-09T18:51:09.885Z,101415.61
2022-08-09T18:53:59.596Z,101412.14
2022-08-09T18:56:27.106Z,101416.79
2022-08-09T18:58:56.894Z,101416.94
2022-08-09T19:01:24.640Z,101416.08
2022-08-09T19:04:01.427Z,101418.60
2022-08-09T19:06:34.209Z,101419.04
2022-08-09T19:09:04.726Z,101422.58
2022-08-09T19:11:35.222Z,101423.56
2022-08-09T19:14:06.981Z,101423.13
2022-08-09T19:16:37.874Z,101427.45
2022-08-09T19:19:23.798Z,101425.51
2022-08-09T19:22:04.159Z,101423.45
2022-08-09T19:24:38.667Z,101426.59
2022-08-09T19:27:21.855Z,101433.81
2022-08-09T19:30:24.808Z,101434.15
2022-08-09T19:32:36.944Z,101433.34
2022-08-09T19:35:04.838Z,101436.48
2022-08-09T19:37:41.112Z,101436.45
2022-08-09T19:40:19.844Z,101437.09
2022-08-09T19:42:47.474Z,101435.56
2022-08-09T19:45:17.829Z,101434.56
2022-08-09T19:47:45.853Z,101432.48
2022-08-09T19:50:50.946Z,101433.64
2022-08-09T19:53:02.573Z,101432.89
2022-08-09T19:56:01.888Z,101433.66
2022-08-09T19:58:29.976Z,101434.48
2022-08-09T20:00:58.539Z,101437.35
2022-08-09T20:04:14.535Z,101437.92
2022-08-09T20:06:23.527Z,101435.73
2022-08-09T20:08:57.664Z,101437.44
2022-08-09T20:11:27.309Z,101433.17
2022-08-09T20:14:15.313Z,101430.84
2022-08-09T20:16:53.800Z,101426.55
2022-08-09T20:19:48.096Z,101428.98
2022-08-09T20:22:14.051Z,101435.17
2022-08-09T20:24:42.481Z,101434.82
2022-08-09T20:27:11.673Z,101434.48
2022-08-09T20:29:41.137Z,101434.23
2022-08-09T20:32:31.176Z,101434.29
2022-08-09T20:34:58.941Z,101432.38
2022-08-09T20:38:19.035Z,101431.36
2022-08-09T20:40:19.090Z,101432.50
2022-08-09T20:42:59.852Z,101429.75
2022-08-09T20:46:01.614Z,101430.95
2022-08-09T20:48:28.904Z,101429.45
2022-08-09T20:50:59.175Z,101432.06
2022-08-09T20:53:37.095Z,101430.05
2022-08-09T20:56:20.216Z,101428.80
2022-08-09T20:58:54.424Z,101430.71
2022-08-09T21:01:35.331Z,101434.70
2022-08-09T21:05:56.670Z,101440.04
2022-08-09T21:07:11.734Z,101436.23
2022-08-09T21:09:56.153Z,101434.40
2022-08-09T21:15:14.425Z,101435.08
2022-08-09T21:18:11.664Z,101436.84
2022-08-09T21:20:30.935Z,101434.34
2022-08-09T21:22:59.638Z,101437.50
2022-08-09T21:25:56.212Z,101438.32
2022-08-09T21:28:36.108Z,101440.73
2022-08-09T21:31:17.014Z,101441.52
2022-08-09T21:33:52.846Z,101443.58
2022-08-09T21:36:23.510Z,101444.77
2022-08-09T21:38:57.182Z,101445.27
2022-08-09T21:42:04.871Z,101444.48
2022-08-09T21:44:33.257Z,101446.66
2022-08-09T21:47:08.628Z,101445.20
2022-08-09T21:49:40.218Z,101447.84
2022-08-09T21:52:16.669Z,101445.90
2022-08-09T21:54:49.709Z,101441.90
2022-08-09T21:57:37.236Z,101442.06
2022-08-09T22:00:37.329Z,101443.41
2022-08-09T22:03:06.439Z,101447.39
2022-08-09T22:05:41.954Z,101448.02
2022-08-09T22:08:14.712Z,101444.93
2022-08-09T22:11:50.505Z,101445.95
2022-08-09T22:13:34.882Z,101445.83
2022-08-09T22:16:07.163Z,101443.98
2022-08-09T22:18:37.332Z,101443.35
2022-08-09T22:21:09.352Z,101444.86
2022-08-09T22:24:01.545Z,101440.22
2022-08-09T22:26:35.622Z,101438.67
2022-08-09T22:29:08.788Z,101439.49
2022-08-09T22:31:37.992Z,101437.79
2022-08-09T22:34:15.027Z,101436.41
2022-08-09T22:36:46.362Z,101436.13
2022-08-09T22:39:46.892Z,101434.96
2022-08-09T22:42:03.135Z,101432.48
2022-08-09T22:44:32.897Z,101428.66
2022-08-09T22:48:15.661Z,101429.63
2022-08-09T22:49:51.915Z,101428.11
2022-08-09T22:52:19.908Z,101426.75
2022-08-09T22:54:48.136Z,101426.14
2022-08-09T22:57:15.482Z,101423.20
2022-08-09T22:59:55.731Z,101421.84
2022-08-09T23:02:25.665Z,101426.24
2022-08-09T23:04:56.862Z,101428.69
2022-08-09T23:10:50.444Z,101424.26
2022-08-09T23:13:17.561Z,101421.42
2022-08-09T23:16:02.703Z,101423.45
2022-08-09T23:22:27.848Z,101424.05
2022-08-09T23:29:15.747Z,101428.98
2022-08-09T23:31:42.852Z,101430.45
2022-08-09T23:34:09.891Z,101434.21
2022-08-09T23:36:37.064Z,101431.00
2022-08-09T23:39:06.732Z,101432.23
2022-08-09T23:41:34.429Z,101424.94
2022-08-09T23:44:02.404Z,101427.54
2022-08-09T23:46:30.804Z,101422.60
2022-08-09T23:48:59.502Z,101426.43
2022-08-09T23:51:26.832Z,101426.52
2022-08-09T23:53:55.229Z,101426.63
2022-08-09T23:56:52.572Z,101430.63
2022-08-09T23:59:16.979Z,101425.02
